Terminal Aerodrome Forecast
Issued by NWS

Home | Current Version | Previous Version | Text Only | Print | Product List | Glossary On
Versions: 1 2 3 4 5 6 7 8 9 10 11 12 13 14 15 16 17 18 19
000
FTUS43 KPAH 291720
TAFCGI
TAF
KCGI 291720Z 2918/3018 18008KT P6SM SCT025 BKN035
      TEMPO 2918/2922 BKN025
     FM300000 17006KT P6SM SCT030 BKN060
     FM300600 17007KT P6SM SCT060 BKN120
      TEMPO 3009/3013 4SM BR
     FM301500 20010KT P6SM VCTS BKN030CB=

USA.gov is the U.S. government's official web portal to all federal, state and local government web resources and services.